Time;durP1;ratioP1;P1;durP2;ratioP2;P2;SDS_P1;SDS_P2;PMS_P1;PMS_P2;Temp;Humidity;BMP_temperature;BMP_pressure;BME280_temperature;BME280_humidity;BME280_pressure;Samples;Min_cycle;Max_cycle;Signal;HPM_P1;HPM_P2
2021/12/04 00:02:28;;;;;;;0.57;0.57;;;2.90;99.90;;;;;;5098444;28;20418;-70
2021/12/04 00:05:16;;;;;;;0.40;0.40;;;2.80;99.90;;;;;;5098822;28;20426;-70
2021/12/04 00:08:03;;;;;;;0.40;0.40;;;2.90;99.90;;;;;;5092916;28;20426;-70
2021/12/04 00:10:50;;;;;;;0.40;0.40;;;2.90;99.90;;;;;;5093196;28;20440;-71
2021/12/04 00:13:37;;;;;;;0.73;0.60;;;2.90;99.90;;;;;;5092959;28;20426;-70
2021/12/04 00:16:25;;;;;;;1.80;1.70;;;2.90;99.90;;;;;;5092979;28;20942;-70
2021/12/04 00:19:12;;;;;;;1.00;0.97;;;2.90;99.90;;;;;;5092323;28;20465;-69
2021/12/04 00:22:00;;;;;;;0.40;0.40;;;3.00;99.90;;;;;;5093065;28;20446;-70
2021/12/04 00:24:48;;;;;;;0.50;0.50;;;2.90;99.90;;;;;;5092991;28;20418;-69
2021/12/04 00:27:35;;;;;;;0.40;0.40;;;3.00;99.90;;;;;;5092392;28;20543;-69
2021/12/04 00:30:22;;;;;;;0.40;0.40;;;3.00;99.90;;;;;;5091801;28;20421;-70
2021/12/04 00:33:15;;;;;;;2.10;1.00;;;3.00;99.90;;;;;;5092290;28;20481;-69
2021/12/04 00:36:05;;;;;;;0.40;0.40;;;3.10;99.90;;;;;;5092252;28;20505;-68
2021/12/04 00:51:12;;;;;;;0.40;0.40;;;3.10;99.90;;;;;;5072781;28;20412;-69
2021/12/04 00:53:59;;;;;;;0.40;0.40;;;3.10;99.90;;;;;;5071822;28;20424;-69
2021/12/04 00:56:47;;;;;;;0.87;0.87;;;3.10;99.90;;;;;;5071340;28;20513;-69
2021/12/04 00:59:33;;;;;;;0.40;0.40;;;3.10;99.90;;;;;;5104923;22;20484;-66
2021/12/04 01:02:21;;;;;;;0.80;0.80;;;3.10;99.90;;;;;;5093408;28;20418;-66
2021/12/04 01:05:08;;;;;;;0.63;0.63;;;3.10;99.90;;;;;;5093202;28;20427;-66
2021/12/04 01:07:57;;;;;;;0.40;0.40;;;3.10;99.90;;;;;;5093203;28;20843;-66
2021/12/04 01:10:44;;;;;;;0.40;0.40;;;3.10;99.90;;;;;;5071692;28;20416;-66
2021/12/04 01:13:32;;;;;;;0.40;0.40;;;3.10;99.90;;;;;;5074297;28;20493;-66
2021/12/04 01:16:19;;;;;;;0.40;0.40;;;3.10;99.90;;;;;;5091750;28;20427;-66
2021/12/04 01:19:06;;;;;;;0.40;0.40;;;3.10;99.90;;;;;;5092028;28;20442;-66
2021/12/04 01:21:54;;;;;;;0.60;0.60;;;3.10;99.90;;;;;;5091944;28;20427;-66
2021/12/04 01:24:42;;;;;;;0.40;0.40;;;2.50;99.90;;;;;;5091535;28;20484;-67
2021/12/04 01:27:29;;;;;;;0.40;0.40;;;3.20;99.90;;;;;;5092347;28;20489;-67
2021/12/04 01:30:16;;;;;;;0.60;0.60;;;3.20;99.90;;;;;;5093001;28;20505;-68
2021/12/04 01:33:04;;;;;;;0.40;0.40;;;3.10;99.90;;;;;;5092216;28;20558;-67
2021/12/04 01:35:51;;;;;;;0.40;0.40;;;3.10;99.90;;;;;;5091820;28;20431;-66
2021/12/04 01:38:38;;;;;;;0.40;0.40;;;3.20;99.90;;;;;;5092073;28;20439;-67
2021/12/04 01:41:26;;;;;;;0.40;0.40;;;3.10;99.90;;;;;;5092244;28;20447;-66
2021/12/04 01:44:14;;;;;;;0.73;0.73;;;3.20;99.90;;;;;;5092801;28;20423;-67
2021/12/04 01:47:11;;;;;;;0.40;0.40;;;3.20;99.90;;;;;;5092543;28;20462;-66
2021/12/04 01:49:59;;;;;;;0.40;0.40;;;1.80;99.90;;;;;;5090249;28;20443;-67
2021/12/04 01:52:46;;;;;;;0.40;0.40;;;4.00;99.90;;;;;;5091235;28;20723;-67
2021/12/04 01:55:35;;;;;;;0.40;0.40;;;3.20;99.90;;;;;;5091090;28;20427;-67
2021/12/04 01:58:24;;;;;;;0.50;0.50;;;3.10;99.90;;;;;;5085725;28;20436;-67
2021/12/04 02:01:12;;;;;;;0.40;0.40;;;3.20;99.90;;;;;;5077150;28;20442;-66
2021/12/04 02:03:59;;;;;;;0.40;0.40;;;3.20;99.90;;;;;;5077979;28;20412;-67
2021/12/04 02:06:46;;;;;;;0.40;0.40;;;3.20;99.90;;;;;;5078959;28;20420;-67
2021/12/04 02:09:33;;;;;;;0.40;0.40;;;3.10;99.90;;;;;;5079017;28;20489;-66
2021/12/04 02:12:20;;;;;;;0.63;0.63;;;3.20;99.90;;;;;;5078418;28;20483;-66
2021/12/04 02:15:13;;;;;;;0.40;0.40;;;3.10;99.90;;;;;;5077150;28;21017;-67
2021/12/04 02:18:02;;;;;;;0.40;0.40;;;3.10;99.90;;;;;;5076841;28;20485;-66
2021/12/04 02:20:51;;;;;;;0.40;0.40;;;3.10;99.90;;;;;;5080160;28;20423;-67
2021/12/04 02:23:38;;;;;;;0.40;0.40;;;3.10;99.90;;;;;;5086674;28;20411;-66
2021/12/04 02:26:25;;;;;;;2.30;0.87;;;3.20;99.90;;;;;;5086332;28;20430;-66
2021/12/04 02:29:11;;;;;;;0.40;0.40;;;3.20;99.90;;;;;;5090041;28;20447;-67
2021/12/04 02:32:00;;;;;;;0.40;0.40;;;3.20;99.90;;;;;;5087232;28;20423;-67
2021/12/04 02:34:47;;;;;;;0.40;0.40;;;3.20;99.90;;;;;;5079316;28;20450;-67
2021/12/04 02:37:37;;;;;;;0.40;0.40;;;3.30;99.90;;;;;;5072186;28;20440;-67
2021/12/04 02:40:24;;;;;;;0.40;0.40;;;3.20;99.90;;;;;;5080853;28;20443;-66
2021/12/04 02:43:12;;;;;;;0.40;0.40;;;3.20;99.90;;;;;;5079108;28;20435;-66
2021/12/04 02:45:59;;;;;;;0.40;0.40;;;2.90;99.90;;;;;;5078787;28;20427;-66
2021/12/04 02:48:47;;;;;;;0.40;0.40;;;3.20;99.90;;;;;;5088459;28;20451;-67
2021/12/04 02:51:34;;;;;;;0.40;0.40;;;3.20;99.90;;;;;;5085496;28;20427;-66
2021/12/04 02:54:22;;;;;;;0.40;0.40;;;3.30;99.90;;;;;;5080002;28;20964;-66
2021/12/04 02:57:12;;;;;;;0.40;0.40;;;3.30;99.90;;;;;;5079132;28;20415;-67
2021/12/04 02:59:59;;;;;;;0.50;0.50;;;3.30;99.90;;;;;;5077857;28;20455;-66
2021/12/04 03:02:46;;;;;;;0.40;0.40;;;3.30;99.90;;;;;;5078194;28;20408;-67
2021/12/04 03:05:33;;;;;;;0.40;0.40;;;3.20;99.90;;;;;;5077690;28;20424;-66
2021/12/04 03:08:21;;;;;;;0.40;0.40;;;3.30;99.90;;;;;;5077315;28;20415;-66
2021/12/04 03:11:09;;;;;;;0.40;0.40;;;3.30;99.90;;;;;;5078022;28;20411;-66
2021/12/04 03:13:56;;;;;;;0.40;0.40;;;3.30;99.90;;;;;;5077336;28;20459;-67
2021/12/04 03:16:44;;;;;;;0.40;0.40;;;3.30;99.90;;;;;;5077655;28;20420;-66
2021/12/04 03:19:31;;;;;;;0.40;0.40;;;3.30;99.90;;;;;;5077253;28;20447;-66
2021/12/04 03:22:19;;;;;;;0.40;0.40;;;3.40;99.90;;;;;;5082732;28;20423;-66
2021/12/04 03:25:07;;;;;;;0.40;0.40;;;3.40;99.90;;;;;;5094873;28;20432;-67
2021/12/04 03:27:56;;;;;;;0.40;0.40;;;3.40;99.90;;;;;;5086033;28;20506;-67
2021/12/04 03:30:47;;;;;;;0.40;0.40;;;3.40;99.90;;;;;;5090443;28;20428;-67
2021/12/04 03:42:47;;;;;;;0.80;0.80;;;3.50;99.90;;;;;;5090503;28;20430;-66
2021/12/04 03:45:39;;;;;;;0.40;0.40;;;3.50;99.90;;;;;;5079400;28;20429;-67
2021/12/04 03:48:50;;;;;;;0.40;0.40;;;3.40;99.90;;;;;;5080371;28;20446;-67
2021/12/04 03:51:37;;;;;;;0.40;0.40;;;3.50;99.90;;;;;;5080925;28;20424;-67
2021/12/04 03:54:23;;;;;;;0.40;0.40;;;3.40;99.90;;;;;;5080365;28;20467;-66
2021/12/04 03:57:12;;;;;;;0.40;0.40;;;3.50;99.90;;;;;;5079133;28;20489;-67
2021/12/04 04:00:00;;;;;;;0.40;0.40;;;3.50;99.90;;;;;;5077904;28;20458;-67
2021/12/04 04:02:48;;;;;;;0.60;0.60;;;3.50;99.90;;;;;;5078962;28;20502;-66
2021/12/04 04:05:35;;;;;;;0.40;0.40;;;3.50;99.90;;;;;;5075714;28;20428;-66
2021/12/04 04:08:22;;;;;;;0.40;0.40;;;3.40;99.90;;;;;;5074706;28;20476;-66
2021/12/04 04:11:09;;;;;;;0.40;0.40;;;3.50;99.90;;;;;;5074762;28;20415;-67
2021/12/04 04:13:56;;;;;;;0.40;0.40;;;3.50;99.90;;;;;;5074092;28;20888;-66
2021/12/04 04:16:43;;;;;;;0.40;0.40;;;3.50;99.90;;;;;;5074699;28;20423;-66
2021/12/04 04:19:31;;;;;;;0.40;0.40;;;3.60;99.90;;;;;;5074162;28;20443;-66
2021/12/04 04:22:18;;;;;;;0.40;0.40;;;3.60;99.90;;;;;;5073957;28;20422;-66
2021/12/04 04:25:06;;;;;;;0.40;0.40;;;3.60;99.90;;;;;;5073211;28;20430;-66
2021/12/04 04:27:53;;;;;;;0.40;0.40;;;3.60;99.90;;;;;;5075316;28;20428;-66
2021/12/04 04:30:40;;;;;;;0.40;0.40;;;3.60;99.90;;;;;;5072768;28;20420;-67
2021/12/04 04:33:29;;;;;;;0.40;0.40;;;3.60;99.90;;;;;;5073564;28;20948;-66
2021/12/04 04:36:32;;;;;;;0.40;0.40;;;3.60;99.90;;;;;;5073873;28;20415;-66
2021/12/04 04:39:40;;;;;;;0.40;0.40;;;3.50;99.90;;;;;;5072749;28;20969;-67
2021/12/04 04:58:23;;;;;;;0.40;0.40;;;3.60;99.90;;;;;;5033825;28;20441;-67
2021/12/04 05:01:20;;;;;;;0.40;0.40;;;3.50;99.90;;;;;;5067457;28;20430;-66
2021/12/04 05:10:21;;;;;;;0.40;0.40;;;3.60;99.90;;;;;;5059014;28;20534;-66
2021/12/04 05:13:10;;;;;;;0.40;0.40;;;3.60;99.90;;;;;;5072693;28;20517;-67
2021/12/04 05:15:58;;;;;;;0.40;0.40;;;3.60;99.90;;;;;;5073115;28;20428;-66
2021/12/04 05:18:53;;;;;;;0.40;0.40;;;3.40;99.90;;;;;;5073743;28;20439;-66
2021/12/04 05:21:40;;;;;;;0.40;0.40;;;3.50;99.90;;;;;;5074023;28;20424;-66
2021/12/04 05:24:28;;;;;;;0.40;0.40;;;3.50;99.90;;;;;;5075265;28;20449;-66
2021/12/04 05:27:16;;;;;;;0.40;0.40;;;3.50;99.90;;;;;;5075053;28;20431;-66
2021/12/04 05:30:04;;;;;;;0.40;0.40;;;3.40;99.90;;;;;;5074779;28;20459;-66
2021/12/04 05:32:51;;;;;;;0.40;0.40;;;3.50;99.90;;;;;;5075775;28;20423;-66
2021/12/04 05:35:38;;;;;;;0.40;0.40;;;3.40;99.90;;;;;;5075049;28;20419;-67
2021/12/04 05:38:26;;;;;;;0.40;0.40;;;3.20;99.90;;;;;;5074641;28;20525;-67
2021/12/04 05:41:16;;;;;;;0.40;0.40;;;3.40;99.90;;;;;;5074608;28;20939;-66
2021/12/04 05:44:06;;;;;;;0.40;0.40;;;3.40;99.90;;;;;;5074309;28;20419;-66
2021/12/04 05:46:57;;;;;;;0.50;0.50;;;3.40;99.90;;;;;;5077020;28;20954;-66
2021/12/04 05:49:49;;;;;;;0.40;0.40;;;3.40;99.90;;;;;;5075355;28;20447;-66
2021/12/04 05:52:40;;;;;;;0.40;0.40;;;3.40;99.90;;;;;;5075466;28;20430;-66
2021/12/04 05:55:28;;;;;;;0.40;0.40;;;3.40;99.90;;;;;;5075260;28;20408;-66
2021/12/04 05:58:16;;;;;;;0.40;0.40;;;3.30;99.90;;;;;;5074927;28;20511;-66
2021/12/04 06:01:06;;;;;;;0.40;0.40;;;3.30;99.90;;;;;;5075152;28;20431;-66
2021/12/04 06:03:53;;;;;;;0.40;0.40;;;3.40;99.90;;;;;;5078708;28;20438;-66
2021/12/04 06:06:40;;;;;;;0.40;0.40;;;3.30;99.90;;;;;;5078779;28;20940;-66
2021/12/04 06:09:27;;;;;;;0.40;0.40;;;3.30;99.90;;;;;;5078146;28;20436;-66
2021/12/04 06:12:14;;;;;;;0.40;0.40;;;3.40;99.90;;;;;;5078406;28;20419;-66
2021/12/04 06:15:03;;;;;;;0.40;0.40;;;3.40;99.90;;;;;;5078094;28;20470;-66
2021/12/04 06:17:52;;;;;;;0.40;0.40;;;3.40;99.90;;;;;;5092753;28;20431;-67
2021/12/04 06:23:45;;;;;;;0.40;0.40;;;3.40;99.90;;;;;;5080661;28;20407;-66
2021/12/04 06:26:32;;;;;;;0.40;0.40;;;3.40;99.90;;;;;;5077478;28;20424;-66
2021/12/04 06:29:19;;;;;;;0.40;0.40;;;3.40;99.90;;;;;;5076981;28;20942;-66
2021/12/04 06:32:08;;;;;;;0.40;0.40;;;3.30;99.90;;;;;;5078145;28;20434;-66
2021/12/04 06:34:55;;;;;;;0.40;0.40;;;3.40;99.90;;;;;;5077008;28;20476;-66
2021/12/04 06:37:42;;;;;;;0.40;0.40;;;3.40;99.90;;;;;;5090878;28;20453;-67
2021/12/04 06:40:29;;;;;;;0.47;0.47;;;3.40;99.90;;;;;;5093860;28;20442;-67
2021/12/04 06:43:16;;;;;;;0.40;0.40;;;3.40;99.90;;;;;;5086377;28;20462;-67
2021/12/04 06:46:06;;;;;;;0.40;0.40;;;3.40;99.90;;;;;;5075785;28;20439;-67
2021/12/04 06:49:03;;;;;;;0.40;0.40;;;3.40;99.90;;;;;;5074957;28;20448;-67
2021/12/04 06:51:53;;;;;;;0.43;0.43;;;3.40;99.90;;;;;;5068539;28;20425;-67
2021/12/04 06:54:43;;;;;;;0.40;0.40;;;3.40;99.90;;;;;;5076292;28;20472;-67
2021/12/04 06:57:33;;;;;;;1.33;1.23;;;3.40;99.90;;;;;;5076859;28;20490;-66
2021/12/04 07:00:20;;;;;;;0.40;0.40;;;3.40;99.90;;;;;;5075718;28;20460;-67
2021/12/04 07:03:07;;;;;;;0.40;0.40;;;3.40;99.90;;;;;;5077121;28;20416;-66
2021/12/04 07:05:55;;;;;;;0.40;0.40;;;3.30;99.90;;;;;;5077384;28;20435;-66
2021/12/04 07:08:42;;;;;;;0.40;0.40;;;3.40;99.90;;;;;;5076616;28;20439;-66
2021/12/04 07:11:29;;;;;;;0.40;0.40;;;3.40;99.90;;;;;;5074504;28;20837;-67
2021/12/04 07:14:16;;;;;;;0.40;0.40;;;3.40;99.90;;;;;;5071631;28;20482;-67
2021/12/04 07:17:05;;;;;;;0.40;0.40;;;3.40;99.90;;;;;;5075220;28;20428;-67
2021/12/04 07:19:51;;;;;;;0.40;0.40;;;3.40;99.90;;;;;;5076266;28;20440;-67
2021/12/04 07:22:40;;;;;;;0.40;0.40;;;3.50;99.90;;;;;;5076245;28;20453;-66
2021/12/04 07:25:27;;;;;;;0.40;0.40;;;3.50;99.90;;;;;;5076980;28;20420;-66
2021/12/04 07:28:14;;;;;;;0.40;0.40;;;3.50;99.90;;;;;;5072365;28;20455;-67
2021/12/04 07:31:01;;;;;;;0.40;0.40;;;3.50;99.90;;;;;;5074093;28;20439;-67
2021/12/04 07:33:50;;;;;;;0.40;0.40;;;3.70;99.90;;;;;;5075766;28;20447;-66
2021/12/04 07:36:36;;;;;;;0.40;0.40;;;3.70;99.90;;;;;;5075857;28;20424;-67
2021/12/04 07:39:25;;;;;;;0.40;0.40;;;3.60;99.90;;;;;;5075560;28;20455;-67
2021/12/04 07:42:11;;;;;;;0.40;0.40;;;3.60;99.90;;;;;;5074870;28;20412;-67
2021/12/04 07:44:59;;;;;;;0.40;0.40;;;3.70;99.90;;;;;;5091172;28;20410;-67
2021/12/04 07:47:46;;;;;;;0.40;0.40;;;3.70;99.90;;;;;;5092226;28;20495;-67
2021/12/04 07:50:34;;;;;;;0.40;0.40;;;3.80;99.90;;;;;;5093726;28;20447;-67
2021/12/04 07:53:21;;;;;;;0.40;0.40;;;3.80;99.90;;;;;;5094967;28;20427;-67
2021/12/04 07:56:09;;;;;;;0.40;0.40;;;3.80;99.90;;;;;;5095389;28;20462;-66
2021/12/04 07:58:57;;;;;;;0.40;0.40;;;3.70;99.90;;;;;;5091181;28;20462;-67
2021/12/04 08:01:44;;;;;;;0.40;0.40;;;3.70;99.90;;;;;;5091267;28;20438;-67
2021/12/04 08:04:31;;;;;;;0.40;0.40;;;3.70;99.90;;;;;;5093038;28;20441;-67
2021/12/04 08:07:18;;;;;;;0.40;0.40;;;3.70;99.90;;;;;;5094427;28;20419;-67
2021/12/04 08:10:06;;;;;;;0.40;0.40;;;3.80;99.90;;;;;;5094689;28;20447;-67
2021/12/04 08:12:54;;;;;;;0.40;0.40;;;3.90;99.90;;;;;;5096101;28;20427;-67
2021/12/04 08:15:41;;;;;;;0.40;0.40;;;3.90;99.90;;;;;;5091779;28;20471;-67
2021/12/04 08:18:28;;;;;;;0.40;0.40;;;3.90;99.90;;;;;;5091943;28;20423;-67
2021/12/04 08:21:15;;;;;;;0.40;0.40;;;3.90;99.90;;;;;;5093280;28;20427;-67
2021/12/04 08:24:02;;;;;;;0.40;0.40;;;4.10;99.90;;;;;;5093455;28;20441;-67
2021/12/04 08:26:49;;;;;;;0.40;0.40;;;4.10;99.90;;;;;;5092450;28;20439;-67
2021/12/04 08:29:37;;;;;;;0.40;0.40;;;4.10;99.90;;;;;;5093273;28;20477;-67
2021/12/04 08:32:24;;;;;;;0.40;0.40;;;4.10;99.90;;;;;;5092190;28;20457;-67
2021/12/04 08:35:14;;;;;;;0.40;0.40;;;4.20;99.90;;;;;;5091102;28;20463;-67
2021/12/04 08:38:01;;;;;;;0.40;0.40;;;4.20;99.90;;;;;;5093303;28;20450;-67
2021/12/04 08:40:48;;;;;;;0.40;0.40;;;4.20;99.90;;;;;;5092644;28;20411;-67
2021/12/04 08:43:35;;;;;;;0.50;0.50;;;4.20;99.90;;;;;;5079845;28;20439;-66
2021/12/04 08:46:24;;;;;;;0.40;0.40;;;4.20;99.90;;;;;;5073863;28;20431;-67
2021/12/04 08:49:11;;;;;;;0.40;0.40;;;4.20;99.90;;;;;;5072207;28;20470;-67
2021/12/04 08:51:57;;;;;;;0.40;0.40;;;4.30;99.90;;;;;;5072241;28;20428;-67
2021/12/04 08:54:45;;;;;;;0.40;0.40;;;4.40;99.90;;;;;;5072197;28;20460;-67
2021/12/04 08:57:32;;;;;;;0.40;0.40;;;4.40;99.90;;;;;;5073606;28;20427;-67
2021/12/04 09:00:23;;;;;;;0.40;0.40;;;4.40;99.90;;;;;;5073973;28;20459;-67
2021/12/04 09:03:11;;;;;;;0.40;0.40;;;4.40;99.90;;;;;;5073333;28;20421;-67
2021/12/04 09:05:59;;;;;;;0.40;0.40;;;4.40;99.90;;;;;;5071983;28;20482;-68
2021/12/04 09:08:46;;;;;;;0.40;0.40;;;4.40;99.90;;;;;;5071711;28;20505;-67
2021/12/04 09:11:39;;;;;;;0.40;0.40;;;4.40;99.90;;;;;;5074174;28;20455;-68
2021/12/04 09:14:31;;;;;;;0.40;0.40;;;4.50;99.90;;;;;;5073917;28;20475;-68
2021/12/04 09:17:20;;;;;;;0.40;0.40;;;4.40;99.90;;;;;;5073001;28;20412;-66
2021/12/04 09:20:12;;;;;;;0.40;0.40;;;4.60;99.90;;;;;;5072005;28;20444;-67
2021/12/04 09:23:00;;;;;;;0.40;0.40;;;4.70;99.90;;;;;;5070315;28;20428;-68
2021/12/04 09:25:51;;;;;;;1.70;1.70;;;4.70;99.90;;;;;;5070421;28;20424;-68
2021/12/04 09:28:45;;;;;;;0.40;0.40;;;4.80;99.90;;;;;;5069845;28;20440;-66
2021/12/04 09:31:48;;;;;;;0.40;0.40;;;4.90;99.90;;;;;;5070516;28;20589;-66
2021/12/04 10:00:00;;;;;;;0.40;0.40;;;4.70;99.90;;;;;;5081097;28;20439;-66
2021/12/04 10:06:05;;;;;;;0.60;0.60;;;4.80;99.90;;;;;;5114600;27;20513;-65
2021/12/04 10:12:25;;;;;;;0.40;0.40;;;4.90;99.90;;;;;;5149293;27;20408;-67
2021/12/04 10:15:52;;;;;;;0.40;0.40;;;4.90;99.90;;;;;;5154003;27;20851;-67
2021/12/04 10:18:50;;;;;;;0.40;0.40;;;4.90;99.90;;;;;;5153287;27;20845;-67
2021/12/04 10:21:51;;;;;;;0.40;0.40;;;5.00;99.90;;;;;;5152612;27;20427;-67
2021/12/04 10:24:58;;;;;;;0.40;0.40;;;5.00;99.90;;;;;;5154279;27;20412;-67
2021/12/04 10:33:54;;;;;;;0.40;0.40;;;4.80;99.90;;;;;;5152443;27;20459;-68
2021/12/04 10:36:43;;;;;;;0.40;0.40;;;4.80;99.90;;;;;;5151706;27;20923;-68
2021/12/04 10:39:30;;;;;;;0.40;0.40;;;4.80;99.90;;;;;;5152518;27;20458;-66
2021/12/04 10:42:20;;;;;;;0.40;0.40;;;4.80;99.90;;;;;;5152400;27;20416;-67
2021/12/04 10:45:09;;;;;;;0.40;0.40;;;4.80;99.90;;;;;;5153312;27;20512;-67
2021/12/04 10:47:59;;;;;;;1.03;1.03;;;4.80;99.90;;;;;;5152071;27;20420;-67
2021/12/04 10:50:52;;;;;;;0.40;0.40;;;4.80;99.90;;;;;;5151849;27;20419;-68
2021/12/04 10:53:48;;;;;;;0.77;0.77;;;4.80;99.90;;;;;;5153064;27;20420;-67
2021/12/04 10:56:53;;;;;;;0.40;0.40;;;4.80;99.90;;;;;;5151826;27;20421;-65
2021/12/04 10:59:47;;;;;;;0.40;0.40;;;4.90;99.90;;;;;;5151334;27;20534;-65
2021/12/04 11:02:37;;;;;;;0.40;0.40;;;5.00;99.90;;;;;;5153356;27;20423;-66
2021/12/04 11:05:40;;;;;;;0.40;0.40;;;5.00;99.90;;;;;;5153069;27;20442;-66
2021/12/04 11:24:26;;;;;;;0.40;0.40;;;5.60;99.90;;;;;;5139002;27;20932;-67
2021/12/04 11:27:34;;;;;;;0.40;0.40;;;5.30;99.90;;;;;;5141253;27;20431;-67
2021/12/04 11:40:12;;;;;;;0.40;0.40;;;5.10;99.90;;;;;;5073742;28;20451;-67
2021/12/04 11:43:04;;;;;;;0.40;0.40;;;4.90;99.90;;;;;;5137550;27;20421;-67
2021/12/04 11:46:02;;;;;;;0.40;0.40;;;4.90;99.90;;;;;;5137258;27;20532;-67
2021/12/04 11:48:49;;;;;;;0.40;0.40;;;4.90;99.90;;;;;;5136545;27;20432;-67
2021/12/04 11:51:48;;;;;;;0.40;0.40;;;4.90;99.90;;;;;;5137988;27;20417;-67
2021/12/04 11:54:45;;;;;;;0.60;0.60;;;5.00;99.90;;;;;;5137498;27;20549;-66
2021/12/04 11:57:34;;;;;;;0.40;0.40;;;5.10;99.90;;;;;;5137026;27;20791;-67
2021/12/04 12:00:27;;;;;;;0.40;0.40;;;4.90;99.90;;;;;;5137835;27;20494;-67
2021/12/04 12:03:16;;;;;;;0.40;0.40;;;4.90;99.90;;;;;;5137231;27;20431;-67
2021/12/04 12:06:10;;;;;;;0.40;0.40;;;4.80;99.90;;;;;;5136354;27;20425;-67
2021/12/04 12:09:05;;;;;;;0.40;0.40;;;4.80;99.90;;;;;;5135212;27;20437;-67
2021/12/04 12:11:55;;;;;;;0.40;0.40;;;4.90;99.90;;;;;;5136756;27;20417;-67
2021/12/04 12:14:48;;;;;;;0.40;0.40;;;5.00;99.90;;;;;;5136426;27;20459;-67
2021/12/04 12:17:37;;;;;;;0.40;0.40;;;5.10;99.90;;;;;;5136110;27;20427;-67
2021/12/04 12:20:41;;;;;;;0.40;0.40;;;5.10;99.90;;;;;;5151198;27;20445;-67
2021/12/04 12:23:31;;;;;;;0.40;0.40;;;5.00;99.90;;;;;;5155479;27;20412;-67
2021/12/04 12:26:31;;;;;;;0.40;0.40;;;5.00;99.90;;;;;;5145230;27;20417;-66
2021/12/04 12:36:04;;;;;;;0.40;0.40;;;4.70;99.90;;;;;;5136829;27;21109;-67
2021/12/04 12:38:55;;;;;;;0.40;0.40;;;4.70;99.90;;;;;;5135996;27;20452;-67
2021/12/04 12:41:45;;;;;;;0.40;0.40;;;4.60;99.90;;;;;;5135693;27;20590;-67
2021/12/04 12:44:32;;;;;;;0.60;0.60;;;4.60;99.90;;;;;;5135543;27;20420;-67
2021/12/04 12:47:21;;;;;;;0.40;0.40;;;4.70;99.90;;;;;;5134444;27;20774;-67
2021/12/04 12:50:13;;;;;;;0.40;0.40;;;4.70;99.90;;;;;;5134034;27;20441;-67
2021/12/04 12:53:03;;;;;;;0.40;0.40;;;4.70;99.90;;;;;;5134327;27;20493;-67
2021/12/04 12:55:53;;;;;;;0.40;0.40;;;4.70;99.90;;;;;;5134983;27;20456;-67
2021/12/04 12:58:44;;;;;;;0.40;0.40;;;4.70;99.90;;;;;;5135224;27;20432;-68
2021/12/04 13:13:57;;;;;;;0.40;0.40;;;4.80;99.90;;;;;;5134076;27;20411;-67
2021/12/04 13:16:47;;;;;;;0.40;0.40;;;4.90;99.90;;;;;;5133731;27;20420;-67
2021/12/04 13:19:37;;;;;;;0.40;0.40;;;4.90;99.90;;;;;;5135240;27;20456;-67
2021/12/04 13:22:27;;;;;;;0.40;0.40;;;4.90;99.90;;;;;;5135410;27;20435;-67
2021/12/04 13:25:15;;;;;;;0.40;0.40;;;4.90;99.90;;;;;;5133465;27;20420;-67
2021/12/04 13:30:48;;;;;;;0.40;0.40;;;5.00;99.90;;;;;;5134692;27;20522;-66
2021/12/04 13:33:37;;;;;;;0.40;0.40;;;4.80;99.90;;;;;;5134812;27;20423;-66
2021/12/04 13:36:26;;;;;;;0.40;0.40;;;4.80;99.90;;;;;;5135059;27;20981;-67
2021/12/04 13:39:16;;;;;;;0.40;0.40;;;4.80;99.90;;;;;;5134159;27;20455;-66
2021/12/04 13:42:05;;;;;;;0.40;0.40;;;;;;;;;;5135374;27;20424;-66
2021/12/04 13:44:57;;;;;;;0.40;0.40;;;4.70;99.90;;;;;;5114238;28;20402;-67
2021/12/04 13:47:50;;;;;;;0.40;0.40;;;4.70;99.90;;;;;;5116146;27;20786;-67
2021/12/04 13:50:45;;;;;;;0.40;0.40;;;4.80;99.90;;;;;;5152522;27;20430;-66
2021/12/04 13:53:34;;;;;;;0.40;0.40;;;4.90;99.90;;;;;;5153871;27;20950;-66
2021/12/04 13:56:23;;;;;;;0.40;0.40;;;4.90;99.90;;;;;;5153800;27;20463;-67
2021/12/04 13:59:11;;;;;;;0.40;0.40;;;4.90;99.90;;;;;;5153932;27;20431;-67
2021/12/04 14:01:58;;;;;;;0.40;0.40;;;4.80;99.90;;;;;;5154236;27;20506;-66
2021/12/04 14:04:45;;;;;;;1.03;1.03;;;4.70;99.90;;;;;;5157968;27;20435;-66
2021/12/04 14:07:34;;;;;;;0.40;0.40;;;4.80;99.90;;;;;;5156431;27;20411;-66
2021/12/04 14:10:25;;;;;;;0.40;0.40;;;4.70;99.90;;;;;;5153776;27;20939;-66
2021/12/04 14:13:15;;;;;;;0.40;0.40;;;4.60;99.90;;;;;;5153177;27;20476;-66
2021/12/04 14:16:05;;;;;;;0.40;0.40;;;4.50;99.90;;;;;;5154674;27;20447;-66
2021/12/04 14:18:52;;;;;;;0.40;0.40;;;4.50;99.90;;;;;;5154479;27;20467;-66
2021/12/04 14:21:39;;;;;;;0.40;0.40;;;4.40;99.90;;;;;;5154610;27;20444;-66
2021/12/04 14:24:28;;;;;;;0.40;0.40;;;4.30;99.90;;;;;;5156055;27;20422;-66
2021/12/04 14:27:19;;;;;;;0.40;0.40;;;4.40;99.90;;;;;;5154899;27;20422;-66
2021/12/04 14:30:11;;;;;;;0.40;0.40;;;4.40;99.90;;;;;;5154603;27;20439;-66
2021/12/04 14:33:01;;;;;;;0.40;0.40;;;4.50;99.90;;;;;;5154550;27;20411;-66
2021/12/04 14:35:50;;;;;;;2.80;2.60;;;4.40;99.90;;;;;;5153598;27;20979;-67
2021/12/04 14:38:42;;;;;;;0.40;0.40;;;4.50;99.90;;;;;;5153627;27;20443;-66
2021/12/04 14:41:31;;;;;;;0.40;0.40;;;4.50;99.90;;;;;;5154047;27;20426;-67
2021/12/04 14:44:18;;;;;;;0.40;0.40;;;4.40;99.90;;;;;;5134646;27;20424;-66
2021/12/04 14:47:06;;;;;;;0.40;0.40;;;4.40;99.90;;;;;;5134170;28;20413;-66
2021/12/04 14:50:00;;;;;;;0.40;0.40;;;4.40;99.90;;;;;;5133776;27;20449;-66
2021/12/04 14:52:50;;;;;;;0.40;0.40;;;4.30;99.90;;;;;;5137917;27;20423;-66
2021/12/04 14:55:39;;;;;;;0.40;0.40;;;4.30;99.90;;;;;;5137473;27;20455;-67
2021/12/04 14:58:27;;;;;;;0.50;0.50;;;4.30;99.90;;;;;;5137826;27;20416;-66
2021/12/04 15:01:16;;;;;;;0.40;0.40;;;4.30;99.90;;;;;;5138305;27;20421;-66
2021/12/04 15:04:04;;;;;;;0.40;0.40;;;4.30;99.90;;;;;;5138178;27;20432;-66
2021/12/04 15:06:53;;;;;;;0.40;0.40;;;4.30;99.90;;;;;;5137854;27;20774;-67
2021/12/04 15:09:39;;;;;;;0.40;0.40;;;4.30;99.90;;;;;;5136349;27;20448;-66
2021/12/04 15:12:29;;;;;;;0.57;0.57;;;4.30;99.90;;;;;;5137117;27;20420;-66
2021/12/04 15:15:19;;;;;;;0.40;0.40;;;4.30;99.90;;;;;;5137682;27;20462;-66
2021/12/04 15:18:12;;;;;;;0.40;0.40;;;4.20;99.90;;;;;;5140921;27;20431;-68
2021/12/04 15:21:01;;;;;;;0.40;0.40;;;4.20;99.90;;;;;;5158503;27;20425;-67
2021/12/04 15:23:55;;;;;;;0.40;0.40;;;4.20;99.90;;;;;;5150795;27;20970;-66
2021/12/04 15:26:43;;;;;;;0.40;0.40;;;4.30;99.90;;;;;;5138788;27;20498;-66
2021/12/04 15:29:33;;;;;;;0.40;0.40;;;4.10;99.90;;;;;;5137622;27;20844;-67
2021/12/04 15:32:23;;;;;;;0.60;0.60;;;4.20;99.90;;;;;;5137426;27;20424;-66
2021/12/04 15:35:25;;;;;;;0.40;0.40;;;4.10;99.90;;;;;;5138163;27;20551;-66
2021/12/04 15:38:22;;;;;;;0.50;0.50;;;4.20;99.90;;;;;;5138072;27;20420;-67
2021/12/04 15:41:25;;;;;;;0.40;0.40;;;4.20;99.90;;;;;;5139694;27;20561;-66
2021/12/04 15:47:25;;;;;;;0.40;0.40;;;4.20;99.90;;;;;;5135807;27;20435;-66
2021/12/04 15:50:41;;;;;;;0.40;0.40;;;4.20;99.90;;;;;;5138558;27;20443;-67
2021/12/04 15:53:28;;;;;;;0.40;0.40;;;4.10;99.90;;;;;;5139423;27;20455;-66
2021/12/04 15:56:30;;;;;;;0.40;0.40;;;4.20;99.90;;;;;;5139418;27;20456;-66
2021/12/04 15:59:19;;;;;;;0.40;0.40;;;3.70;99.90;;;;;;5150732;27;20444;-67
2021/12/04 16:02:11;;;;;;;0.40;0.40;;;3.90;99.90;;;;;;5152697;27;20428;-66
2021/12/04 16:05:07;;;;;;;0.40;0.40;;;3.90;99.90;;;;;;5152856;27;20464;-67
2021/12/04 16:08:03;;;;;;;0.40;0.40;;;3.90;99.90;;;;;;5151785;27;20420;-67
2021/12/04 16:10:51;;;;;;;0.40;0.40;;;3.90;99.90;;;;;;5152242;27;20424;-67
2021/12/04 16:13:43;;;;;;;0.40;0.40;;;3.90;99.90;;;;;;5151341;27;20420;-67
2021/12/04 16:16:32;;;;;;;0.40;0.40;;;4.00;99.90;;;;;;5147478;27;20460;-67
2021/12/04 16:19:19;;;;;;;0.43;0.43;;;3.90;99.90;;;;;;5107090;22;20584;-68
2021/12/04 16:22:09;;;;;;;0.40;0.40;;;4.00;99.90;;;;;;5074617;28;20415;-68
2021/12/04 16:24:58;;;;;;;0.40;0.40;;;3.90;99.90;;;;;;5073769;28;21067;-68
2021/12/04 16:30:55;;;;;;;0.40;0.40;;;3.80;99.90;;;;;;5073197;28;20426;-69
2021/12/04 16:33:52;;;;;;;0.50;0.50;;;3.80;99.90;;;;;;5074062;28;20930;-71
2021/12/04 16:36:44;;;;;;;0.40;0.40;;;3.80;99.90;;;;;;5072842;28;20470;-69
2021/12/04 16:39:32;;;;;;;0.40;0.40;;;3.90;99.90;;;;;;5073663;28;20458;-69
2021/12/04 16:42:19;;;;;;;0.40;0.40;;;3.90;99.90;;;;;;5078907;28;20422;-69
2021/12/04 16:45:07;;;;;;;0.40;0.40;;;3.80;99.90;;;;;;5082628;28;20492;-69
2021/12/04 16:47:56;;;;;;;0.40;0.40;;;3.80;99.90;;;;;;5074682;28;20451;-69
2021/12/04 17:00:06;;;;;;;0.40;0.40;;;3.80;99.90;;;;;;5075113;28;20434;-69
2021/12/04 17:02:53;;;;;;;0.40;0.40;;;3.80;99.90;;;;;;5075432;28;20431;-69
2021/12/04 17:05:41;;;;;;;0.40;0.40;;;3.80;99.90;;;;;;5072852;28;20836;-69
2021/12/04 17:08:28;;;;;;;0.40;0.40;;;3.80;99.90;;;;;;5074567;28;20446;-70
2021/12/04 17:11:15;;;;;;;0.40;0.40;;;3.70;99.90;;;;;;5074831;28;20420;-70
2021/12/04 17:14:03;;;;;;;0.40;0.40;;;3.70;99.90;;;;;;5073982;28;20484;-69
2021/12/04 17:16:50;;;;;;;0.40;0.40;;;3.80;99.90;;;;;;5073256;28;20466;-69
2021/12/04 17:19:37;;;;;;;0.40;0.40;;;;;;;;;;5073620;28;20489;-69
2021/12/04 17:22:26;;;;;;;0.40;0.40;;;3.70;99.90;;;;;;5072884;28;20950;-69
2021/12/04 17:25:13;;;;;;;0.50;0.50;;;3.70;99.90;;;;;;5072205;28;20427;-69